sensor_id;sensor_type;location;lat;lon;timestamp;temperature;humidity
81800;DHT22;71195;52.528;5.704;2024-01-15T00:00:56;3.50;68.50
81800;DHT22;71195;52.528;5.704;2024-01-15T00:03:25;3.50;68.50
81800;DHT22;71195;52.528;5.704;2024-01-15T00:05:54;3.50;68.50
81800;DHT22;71195;52.528;5.704;2024-01-15T00:08:24;3.50;68.60
81800;DHT22;71195;52.528;5.704;2024-01-15T00:10:53;3.50;68.50
81800;DHT22;71195;52.528;5.704;2024-01-15T00:13:24;3.50;68.50
81800;DHT22;71195;52.528;5.704;2024-01-15T00:15:54;3.50;68.40
81800;DHT22;71195;52.528;5.704;2024-01-15T00:18:23;3.50;68.40
81800;DHT22;71195;52.528;5.704;2024-01-15T00:20:52;3.50;68.20
81800;DHT22;71195;52.528;5.704;2024-01-15T00:23:21;3.50;68.20
81800;DHT22;71195;52.528;5.704;2024-01-15T00:25:51;3.50;68.20
81800;DHT22;71195;52.528;5.704;2024-01-15T00:28:20;3.50;68.20
81800;DHT22;71195;52.528;5.704;2024-01-15T00:30:52;3.50;68.20
81800;DHT22;71195;52.528;5.704;2024-01-15T00:33:21;3.50;68.20
81800;DHT22;71195;52.528;5.704;2024-01-15T00:35:50;3.50;68.20
81800;DHT22;71195;52.528;5.704;2024-01-15T00:38:19;3.50;68.10
81800;DHT22;71195;52.528;5.704;2024-01-15T00:40:48;3.50;68.10
81800;DHT22;71195;52.528;5.704;2024-01-15T00:43:17;3.60;68.00
81800;DHT22;71195;52.528;5.704;2024-01-15T00:45:47;3.50;68.00
81800;DHT22;71195;52.528;5.704;2024-01-15T00:48:19;3.50;68.10
81800;DHT22;71195;52.528;5.704;2024-01-15T00:50:48;3.50;68.10
81800;DHT22;71195;52.528;5.704;2024-01-15T00:53:17;3.50;68.10
81800;DHT22;71195;52.528;5.704;2024-01-15T00:55:48;3.50;68.00
81800;DHT22;71195;52.528;5.704;2024-01-15T00:58:18;3.50;68.00
81800;DHT22;71195;52.528;5.704;2024-01-15T01:00:47;3.50;68.10
81800;DHT22;71195;52.528;5.704;2024-01-15T01:03:19;3.50;68.10
81800;DHT22;71195;52.528;5.704;2024-01-15T01:05:48;3.50;68.10
81800;DHT22;71195;52.528;5.704;2024-01-15T01:08:18;3.50;68.10
81800;DHT22;71195;52.528;5.704;2024-01-15T01:10:47;3.60;68.10
81800;DHT22;71195;52.528;5.704;2024-01-15T01:13:16;3.60;68.10
81800;DHT22;71195;52.528;5.704;2024-01-15T01:15:45;3.60;68.00
81800;DHT22;71195;52.528;5.704;2024-01-15T01:18:14;3.60;68.00
81800;DHT22;71195;52.528;5.704;2024-01-15T01:20:46;3.60;68.00
81800;DHT22;71195;52.528;5.704;2024-01-15T01:23:15;3.70;68.00
81800;DHT22;71195;52.528;5.704;2024-01-15T01:25:44;3.60;68.00
81800;DHT22;71195;52.528;5.704;2024-01-15T01:28:13;3.70;68.00
81800;DHT22;71195;52.528;5.704;2024-01-15T01:30:43;3.70;68.00
81800;DHT22;71195;52.528;5.704;2024-01-15T01:33:12;3.70;68.00
81800;DHT22;71195;52.528;5.704;2024-01-15T01:35:41;3.70;68.00
81800;DHT22;71195;52.528;5.704;2024-01-15T01:38:14;3.70;68.10
81800;DHT22;71195;52.528;5.704;2024-01-15T01:40:43;3.70;68.10
81800;DHT22;71195;52.528;5.704;2024-01-15T01:43:12;3.70;68.00
81800;DHT22;71195;52.528;5.704;2024-01-15T01:45:41;3.70;68.10
81800;DHT22;71195;52.528;5.704;2024-01-15T01:48:10;3.70;68.10
81800;DHT22;71195;52.528;5.704;2024-01-15T01:50:39;3.70;68.10
81800;DHT22;71195;52.528;5.704;2024-01-15T01:53:09;3.70;68.10
81800;DHT22;71195;52.528;5.704;2024-01-15T01:55:40;3.70;68.20
81800;DHT22;71195;52.528;5.704;2024-01-15T01:58:09;3.70;68.10
81800;DHT22;71195;52.528;5.704;2024-01-15T02:00:39;3.70;68.00
81800;DHT22;71195;52.528;5.704;2024-01-15T02:03:08;3.70;68.00
81800;DHT22;71195;52.528;5.704;2024-01-15T02:05:39;3.70;68.00
81800;DHT22;71195;52.528;5.704;2024-01-15T02:08:09;3.70;68.00
81800;DHT22;71195;52.528;5.704;2024-01-15T02:10:41;3.70;68.10
81800;DHT22;71195;52.528;5.704;2024-01-15T02:13:10;3.70;68.10
81800;DHT22;71195;52.528;5.704;2024-01-15T02:15:40;3.70;68.20
81800;DHT22;71195;52.528;5.704;2024-01-15T02:18:09;3.70;68.20
81800;DHT22;71195;52.528;5.704;2024-01-15T02:20:38;3.70;68.20
81800;DHT22;71195;52.528;5.704;2024-01-15T02:23:14;3.70;68.10
81800;DHT22;71195;52.528;5.704;2024-01-15T02:25:44;3.70;68.00
81800;DHT22;71195;52.528;5.704;2024-01-15T02:28:15;3.70;68.00
81800;DHT22;71195;52.528;5.704;2024-01-15T02:30:44;3.70;68.00
81800;DHT22;71195;52.528;5.704;2024-01-15T02:33:14;3.70;68.10
81800;DHT22;71195;52.528;5.704;2024-01-15T02:35:43;3.70;68.00
81800;DHT22;71195;52.528;5.704;2024-01-15T02:38:15;3.70;68.00
81800;DHT22;71195;52.528;5.704;2024-01-15T02:40:44;3.70;68.00
81800;DHT22;71195;52.528;5.704;2024-01-15T02:43:14;3.70;68.00
81800;DHT22;71195;52.528;5.704;2024-01-15T02:45:45;3.70;68.00
81800;DHT22;71195;52.528;5.704;2024-01-15T02:48:14;3.70;68.00
81800;DHT22;71195;52.528;5.704;2024-01-15T02:50:44;3.70;68.00
81800;DHT22;71195;52.528;5.704;2024-01-15T02:53:15;3.80;68.00
81800;DHT22;71195;52.528;5.704;2024-01-15T02:55:44;3.80;68.00
81800;DHT22;71195;52.528;5.704;2024-01-15T02:58:14;3.80;67.90
81800;DHT22;71195;52.528;5.704;2024-01-15T03:00:43;3.80;68.00
81800;DHT22;71195;52.528;5.704;2024-01-15T03:03:13;3.80;68.00
81800;DHT22;71195;52.528;5.704;2024-01-15T03:05:42;3.80;68.00
81800;DHT22;71195;52.528;5.704;2024-01-15T03:08:11;3.90;68.00
81800;DHT22;71195;52.528;5.704;2024-01-15T03:10:43;3.90;68.00
81800;DHT22;71195;52.528;5.704;2024-01-15T03:13:12;3.80;68.10
81800;DHT22;71195;52.528;5.704;2024-01-15T03:15:42;3.70;68.10
81800;DHT22;71195;52.528;5.704;2024-01-15T03:18:11;3.80;68.20
81800;DHT22;71195;52.528;5.704;2024-01-15T03:20:40;3.80;68.10
81800;DHT22;71195;52.528;5.704;2024-01-15T03:23:10;3.80;68.00
81800;DHT22;71195;52.528;5.704;2024-01-15T03:25:41;3.80;68.20
81800;DHT22;71195;52.528;5.704;2024-01-15T03:28:10;3.80;68.20
81800;DHT22;71195;52.528;5.704;2024-01-15T03:30:39;3.80;68.20
81800;DHT22;71195;52.528;5.704;2024-01-15T03:33:09;3.80;68.20
81800;DHT22;71195;52.528;5.704;2024-01-15T03:35:38;3.80;68.20
81800;DHT22;71195;52.528;5.704;2024-01-15T03:38:07;3.70;68.20
81800;DHT22;71195;52.528;5.704;2024-01-15T03:40:36;3.70;68.30
81800;DHT22;71195;52.528;5.704;2024-01-15T03:43:08;3.70;68.30
81800;DHT22;71195;52.528;5.704;2024-01-15T03:45:37;3.70;68.40
81800;DHT22;71195;52.528;5.704;2024-01-15T03:48:06;3.70;68.30
81800;DHT22;71195;52.528;5.704;2024-01-15T03:50:35;3.70;68.40
81800;DHT22;71195;52.528;5.704;2024-01-15T03:53:04;3.70;68.30
81800;DHT22;71195;52.528;5.704;2024-01-15T03:55:33;3.70;68.40
81800;DHT22;71195;52.528;5.704;2024-01-15T03:58:03;3.70;68.30
81800;DHT22;71195;52.528;5.704;2024-01-15T04:00:35;3.80;68.30
81800;DHT22;71195;52.528;5.704;2024-01-15T04:03:04;3.80;68.40
81800;DHT22;71195;52.528;5.704;2024-01-15T04:05:33;3.80;68.40
81800;DHT22;71195;52.528;5.704;2024-01-15T04:08:02;3.80;68.40
81800;DHT22;71195;52.528;5.704;2024-01-15T04:10:32;3.90;68.30
81800;DHT22;71195;52.528;5.704;2024-01-15T04:13:01;3.90;68.30
81800;DHT22;71195;52.528;5.704;2024-01-15T04:15:31;3.90;68.30
81800;DHT22;71195;52.528;5.704;2024-01-15T04:18:03;3.90;68.20
81800;DHT22;71195;52.528;5.704;2024-01-15T04:20:32;3.90;68.20
81800;DHT22;71195;52.528;5.704;2024-01-15T04:23:01;3.90;68.20
81800;DHT22;71195;52.528;5.704;2024-01-15T04:25:30;3.90;68.30
81800;DHT22;71195;52.528;5.704;2024-01-15T04:27:59;3.80;68.40
81800;DHT22;71195;52.528;5.704;2024-01-15T04:30:28;3.80;68.50
81800;DHT22;71195;52.528;5.704;2024-01-15T04:32:57;3.80;68.40
81800;DHT22;71195;52.528;5.704;2024-01-15T04:35:30;3.80;68.50
81800;DHT22;71195;52.528;5.704;2024-01-15T04:37:59;3.90;68.40
81800;DHT22;71195;52.528;5.704;2024-01-15T04:40:28;3.90;68.40
81800;DHT22;71195;52.528;5.704;2024-01-15T04:42:58;3.90;68.40
81800;DHT22;71195;52.528;5.704;2024-01-15T04:45:27;3.80;68.50
81800;DHT22;71195;52.528;5.704;2024-01-15T04:47:56;3.80;68.50
81800;DHT22;71195;52.528;5.704;2024-01-15T04:50:25;3.90;68.50
81800;DHT22;71195;52.528;5.704;2024-01-15T04:52:57;3.90;68.40
81800;DHT22;71195;52.528;5.704;2024-01-15T04:55:26;3.80;68.50
81800;DHT22;71195;52.528;5.704;2024-01-15T04:57:55;3.80;68.50
81800;DHT22;71195;52.528;5.704;2024-01-15T05:00:24;3.80;68.50
81800;DHT22;71195;52.528;5.704;2024-01-15T05:02:54;3.80;68.50
81800;DHT22;71195;52.528;5.704;2024-01-15T05:05:23;3.80;68.60
81800;DHT22;71195;52.528;5.704;2024-01-15T05:07:52;3.80;68.60
81800;DHT22;71195;52.528;5.704;2024-01-15T05:10:23;3.80;68.50
81800;DHT22;71195;52.528;5.704;2024-01-15T05:12:52;3.80;68.50
81800;DHT22;71195;52.528;5.704;2024-01-15T05:15:22;3.80;68.50
81800;DHT22;71195;52.528;5.704;2024-01-15T05:17:51;3.80;68.50
81800;DHT22;71195;52.528;5.704;2024-01-15T05:20:20;3.70;68.60
81800;DHT22;71195;52.528;5.704;2024-01-15T05:22:49;3.70;68.70
81800;DHT22;71195;52.528;5.704;2024-01-15T05:25:18;3.70;68.70
81800;DHT22;71195;52.528;5.704;2024-01-15T05:27:50;3.70;68.70
81800;DHT22;71195;52.528;5.704;2024-01-15T05:30:19;3.60;68.80
81800;DHT22;71195;52.528;5.704;2024-01-15T05:32:48;3.60;68.80
81800;DHT22;71195;52.528;5.704;2024-01-15T05:35:17;3.60;68.80
81800;DHT22;71195;52.528;5.704;2024-01-15T05:37:46;3.60;68.80
81800;DHT22;71195;52.528;5.704;2024-01-15T05:40:15;3.60;68.70
81800;DHT22;71195;52.528;5.704;2024-01-15T05:42:45;3.60;68.70
81800;DHT22;71195;52.528;5.704;2024-01-15T05:45:16;3.60;68.60
81800;DHT22;71195;52.528;5.704;2024-01-15T05:47:46;3.60;68.60
81800;DHT22;71195;52.528;5.704;2024-01-15T05:50:15;3.50;68.60
81800;DHT22;71195;52.528;5.704;2024-01-15T05:52:44;3.50;68.60
81800;DHT22;71195;52.528;5.704;2024-01-15T05:55:14;3.50;68.50
81800;DHT22;71195;52.528;5.704;2024-01-15T05:57:44;3.50;68.50
81800;DHT22;71195;52.528;5.704;2024-01-15T06:00:19;3.50;68.50
81800;DHT22;71195;52.528;5.704;2024-01-15T06:02:48;3.50;68.40
81800;DHT22;71195;52.528;5.704;2024-01-15T06:05:17;3.50;68.50
81800;DHT22;71195;52.528;5.704;2024-01-15T06:07:46;3.50;68.40
81800;DHT22;71195;52.528;5.704;2024-01-15T06:10:16;3.50;68.40
81800;DHT22;71195;52.528;5.704;2024-01-15T06:12:45;3.50;68.40
81800;DHT22;71195;52.528;5.704;2024-01-15T06:15:14;3.50;68.40
81800;DHT22;71195;52.528;5.704;2024-01-15T06:17:46;3.50;68.40
81800;DHT22;71195;52.528;5.704;2024-01-15T06:20:15;3.50;68.40
81800;DHT22;71195;52.528;5.704;2024-01-15T06:22:44;3.50;68.40
81800;DHT22;71195;52.528;5.704;2024-01-15T06:25:13;3.50;68.50
81800;DHT22;71195;52.528;5.704;2024-01-15T06:27:43;3.50;68.30
81800;DHT22;71195;52.528;5.704;2024-01-15T06:30:13;3.40;68.40
81800;DHT22;71195;52.528;5.704;2024-01-15T06:32:42;3.40;68.40
81800;DHT22;71195;52.528;5.704;2024-01-15T06:35:14;3.40;68.40
81800;DHT22;71195;52.528;5.704;2024-01-15T06:37:43;3.30;68.50
81800;DHT22;71195;52.528;5.704;2024-01-15T06:40:12;3.30;68.50
81800;DHT22;71195;52.528;5.704;2024-01-15T06:42:42;3.30;68.50
81800;DHT22;71195;52.528;5.704;2024-01-15T06:45:11;3.30;68.50
81800;DHT22;71195;52.528;5.704;2024-01-15T06:47:40;3.30;68.40
81800;DHT22;71195;52.528;5.704;2024-01-15T06:50:09;3.30;68.50
81800;DHT22;71195;52.528;5.704;2024-01-15T06:52:41;3.30;68.50
81800;DHT22;71195;52.528;5.704;2024-01-15T06:55:10;3.30;68.50
81800;DHT22;71195;52.528;5.704;2024-01-15T06:57:39;3.20;68.50
81800;DHT22;71195;52.528;5.704;2024-01-15T07:00:10;3.10;68.50
81800;DHT22;71195;52.528;5.704;2024-01-15T07:02:39;3.10;68.50
81800;DHT22;71195;52.528;5.704;2024-01-15T07:05:08;3.10;68.60
81800;DHT22;71195;52.528;5.704;2024-01-15T07:07:40;3.10;68.60
81800;DHT22;71195;52.528;5.704;2024-01-15T07:10:09;3.10;68.50
81800;DHT22;71195;52.528;5.704;2024-01-15T07:12:38;3.10;68.60
81800;DHT22;71195;52.528;5.704;2024-01-15T07:15:08;3.10;68.50
81800;DHT22;71195;52.528;5.704;2024-01-15T07:17:38;3.10;68.50
81800;DHT22;71195;52.528;5.704;2024-01-15T07:20:09;3.10;68.40
81800;DHT22;71195;52.528;5.704;2024-01-15T07:22:41;3.10;68.40
81800;DHT22;71195;52.528;5.704;2024-01-15T07:25:11;3.10;68.40
81800;DHT22;71195;52.528;5.704;2024-01-15T07:27:40;3.10;68.40
81800;DHT22;71195;52.528;5.704;2024-01-15T07:30:11;3.10;68.30
81800;DHT22;71195;52.528;5.704;2024-01-15T07:32:41;3.10;68.30
81800;DHT22;71195;52.528;5.704;2024-01-15T07:35:10;3.20;68.30
81800;DHT22;71195;52.528;5.704;2024-01-15T07:37:41;3.20;68.40
81800;DHT22;71195;52.528;5.704;2024-01-15T07:40:11;3.30;68.30
81800;DHT22;71195;52.528;5.704;2024-01-15T07:42:40;3.30;68.20
81800;DHT22;71195;52.528;5.704;2024-01-15T07:45:10;3.30;68.20
81800;DHT22;71195;52.528;5.704;2024-01-15T07:47:40;3.30;68.20
81800;DHT22;71195;52.528;5.704;2024-01-15T07:50:10;3.30;68.20
81800;DHT22;71195;52.528;5.704;2024-01-15T07:52:42;3.30;68.20
81800;DHT22;71195;52.528;5.704;2024-01-15T07:55:11;3.30;68.30
81800;DHT22;71195;52.528;5.704;2024-01-15T07:57:40;3.30;68.30
81800;DHT22;71195;52.528;5.704;2024-01-15T08:00:10;3.30;68.30
81800;DHT22;71195;52.528;5.704;2024-01-15T08:02:39;3.30;68.30
81800;DHT22;71195;52.528;5.704;2024-01-15T08:05:08;3.30;68.30
81800;DHT22;71195;52.528;5.704;2024-01-15T08:07:38;3.30;68.30
81800;DHT22;71195;52.528;5.704;2024-01-15T08:10:09;3.30;68.30
81800;DHT22;71195;52.528;5.704;2024-01-15T08:12:40;3.30;68.40
81800;DHT22;71195;52.528;5.704;2024-01-15T08:15:09;3.30;68.30
81800;DHT22;71195;52.528;5.704;2024-01-15T08:17:38;3.20;68.40
81800;DHT22;71195;52.528;5.704;2024-01-15T08:20:08;3.20;68.30
81800;DHT22;71195;52.528;5.704;2024-01-15T08:22:38;3.30;68.30
81800;DHT22;71195;52.528;5.704;2024-01-15T08:25:10;3.20;68.30
81800;DHT22;71195;52.528;5.704;2024-01-15T08:27:39;3.10;68.30
81800;DHT22;71195;52.528;5.704;2024-01-15T08:30:10;3.10;68.40
81800;DHT22;71195;52.528;5.704;2024-01-15T08:32:39;3.10;68.30
81800;DHT22;71195;52.528;5.704;2024-01-15T08:35:10;3.10;68.40
81800;DHT22;71195;52.528;5.704;2024-01-15T08:37:39;3.10;68.40
81800;DHT22;71195;52.528;5.704;2024-01-15T08:40:11;3.10;68.30
81800;DHT22;71195;52.528;5.704;2024-01-15T08:42:40;3.10;68.30
81800;DHT22;71195;52.528;5.704;2024-01-15T08:45:09;3.10;68.30
81800;DHT22;71195;52.528;5.704;2024-01-15T08:47:38;3.10;68.20
81800;DHT22;71195;52.528;5.704;2024-01-15T08:50:08;3.10;68.30
81800;DHT22;71195;52.528;5.704;2024-01-15T08:52:38;3.10;68.20
81800;DHT22;71195;52.528;5.704;2024-01-15T08:55:10;3.20;68.10
81800;DHT22;71195;52.528;5.704;2024-01-15T08:57:39;3.30;68.00
81800;DHT22;71195;52.528;5.704;2024-01-15T09:00:10;3.30;68.00
81800;DHT22;71195;52.528;5.704;2024-01-15T09:02:40;3.30;67.90
81800;DHT22;71195;52.528;5.704;2024-01-15T09:05:09;3.30;67.90
81800;DHT22;71195;52.528;5.704;2024-01-15T09:07:38;3.40;67.90
81800;DHT22;71195;52.528;5.704;2024-01-15T09:10:10;3.30;67.90
81800;DHT22;71195;52.528;5.704;2024-01-15T09:12:39;3.40;68.00
81800;DHT22;71195;52.528;5.704;2024-01-15T09:15:09;3.40;67.90
81800;DHT22;71195;52.528;5.704;2024-01-15T09:17:38;3.50;67.90
81800;DHT22;71195;52.528;5.704;2024-01-15T09:20:10;3.50;67.80
81800;DHT22;71195;52.528;5.704;2024-01-15T09:22:39;3.50;68.00
81800;DHT22;71195;52.528;5.704;2024-01-15T09:25:11;3.50;68.00
81800;DHT22;71195;52.528;5.704;2024-01-15T09:27:40;3.50;68.00
81800;DHT22;71195;52.528;5.704;2024-01-15T09:30:10;3.50;68.00
81800;DHT22;71195;52.528;5.704;2024-01-15T09:32:40;3.60;67.90
81800;DHT22;71195;52.528;5.704;2024-01-15T09:35:09;3.60;67.80
81800;DHT22;71195;52.528;5.704;2024-01-15T09:37:39;3.70;67.80
81800;DHT22;71195;52.528;5.704;2024-01-15T09:40:13;3.70;67.80
81800;DHT22;71195;52.528;5.704;2024-01-15T09:42:43;3.70;67.90
81800;DHT22;71195;52.528;5.704;2024-01-15T09:45:12;3.80;67.90
81800;DHT22;71195;52.528;5.704;2024-01-15T09:47:42;3.70;67.90
81800;DHT22;71195;52.528;5.704;2024-01-15T09:50:11;3.80;67.80
81800;DHT22;71195;52.528;5.704;2024-01-15T09:52:42;3.90;67.90
81800;DHT22;71195;52.528;5.704;2024-01-15T09:55:17;3.90;67.80
81800;DHT22;71195;52.528;5.704;2024-01-15T09:57:47;4.00;67.80
81800;DHT22;71195;52.528;5.704;2024-01-15T10:00:18;4.00;67.80
81800;DHT22;71195;52.528;5.704;2024-01-15T10:02:47;4.10;67.70
81800;DHT22;71195;52.528;5.704;2024-01-15T10:05:16;4.10;67.70
81800;DHT22;71195;52.528;5.704;2024-01-15T10:07:46;4.20;67.70
81800;DHT22;71195;52.528;5.704;2024-01-15T10:10:20;4.20;67.70
81800;DHT22;71195;52.528;5.704;2024-01-15T10:12:49;4.20;67.80
81800;DHT22;71195;52.528;5.704;2024-01-15T10:15:22;4.20;67.80
81800;DHT22;71195;52.528;5.704;2024-01-15T10:17:52;4.20;67.90
81800;DHT22;71195;52.528;5.704;2024-01-15T10:20:21;4.20;67.90
81800;DHT22;71195;52.528;5.704;2024-01-15T10:22:51;4.20;67.90
81800;DHT22;71195;52.528;5.704;2024-01-15T10:25:22;4.30;67.90
81800;DHT22;71195;52.528;5.704;2024-01-15T10:28:02;4.30;67.90
81800;DHT22;71195;52.528;5.704;2024-01-15T10:30:32;4.30;67.90
81800;DHT22;71195;52.528;5.704;2024-01-15T10:33:03;4.40;67.90
81800;DHT22;71195;52.528;5.704;2024-01-15T10:35:33;4.50;67.80
81800;DHT22;71195;52.528;5.704;2024-01-15T10:38:03;4.50;67.80
81800;DHT22;71195;52.528;5.704;2024-01-15T10:40:35;4.50;67.90
81800;DHT22;71195;52.528;5.704;2024-01-15T10:43:04;4.50;67.90
81800;DHT22;71195;52.528;5.704;2024-01-15T10:45:33;4.50;68.00
81800;DHT22;71195;52.528;5.704;2024-01-15T10:48:03;4.40;68.00
81800;DHT22;71195;52.528;5.704;2024-01-15T10:50:32;4.40;68.00
81800;DHT22;71195;52.528;5.704;2024-01-15T10:53:03;4.40;68.10
81800;DHT22;71195;52.528;5.704;2024-01-15T10:55:35;4.30;68.20
81800;DHT22;71195;52.528;5.704;2024-01-15T10:58:07;4.30;68.30
81800;DHT22;71195;52.528;5.704;2024-01-15T11:00:36;4.30;68.30
81800;DHT22;71195;52.528;5.704;2024-01-15T11:03:06;4.30;68.30
81800;DHT22;71195;52.528;5.704;2024-01-15T11:05:37;4.30;68.40
81800;DHT22;71195;52.528;5.704;2024-01-15T11:08:08;4.30;68.40
81800;DHT22;71195;52.528;5.704;2024-01-15T11:10:44;4.30;68.40
81800;DHT22;71195;52.528;5.704;2024-01-15T11:13:19;4.20;68.50
81800;DHT22;71195;52.528;5.704;2024-01-15T11:15:59;4.20;68.70
81800;DHT22;71195;52.528;5.704;2024-01-15T11:18:30;4.10;68.70
81800;DHT22;71195;52.528;5.704;2024-01-15T11:21:20;4.10;68.80
81800;DHT22;71195;52.528;5.704;2024-01-15T11:23:53;4.10;68.80
81800;DHT22;71195;52.528;5.704;2024-01-15T11:26:44;4.00;68.80
81800;DHT22;71195;52.528;5.704;2024-01-15T11:29:31;4.00;68.90
81800;DHT22;71195;52.528;5.704;2024-01-15T11:32:05;4.00;68.90
81800;DHT22;71195;52.528;5.704;2024-01-15T11:34:53;4.10;68.80
81800;DHT22;71195;52.528;5.704;2024-01-15T11:37:25;4.20;68.70
81800;DHT22;71195;52.528;5.704;2024-01-15T11:39:55;4.20;68.60
81800;DHT22;71195;52.528;5.704;2024-01-15T11:42:27;4.20;68.70
81800;DHT22;71195;52.528;5.704;2024-01-15T11:44:57;4.30;68.60
81800;DHT22;71195;52.528;5.704;2024-01-15T11:47:55;4.20;68.60
81800;DHT22;71195;52.528;5.704;2024-01-15T11:50:30;4.20;68.60
81800;DHT22;71195;52.528;5.704;2024-01-15T11:53:01;4.20;68.70
81800;DHT22;71195;52.528;5.704;2024-01-15T11:55:33;4.20;68.70
81800;DHT22;71195;52.528;5.704;2024-01-15T11:58:08;4.20;68.70
81800;DHT22;71195;52.528;5.704;2024-01-15T12:00:43;4.20;68.70
81800;DHT22;71195;52.528;5.704;2024-01-15T12:03:12;4.10;68.70
81800;DHT22;71195;52.528;5.704;2024-01-15T12:05:41;4.20;68.70
81800;DHT22;71195;52.528;5.704;2024-01-15T12:08:10;4.20;68.60
81800;DHT22;71195;52.528;5.704;2024-01-15T12:10:41;4.20;68.60
81800;DHT22;71195;52.528;5.704;2024-01-15T12:13:13;4.30;68.60
81800;DHT22;71195;52.528;5.704;2024-01-15T12:15:44;4.30;68.50
81800;DHT22;71195;52.528;5.704;2024-01-15T12:18:15;4.40;68.40
81800;DHT22;71195;52.528;5.704;2024-01-15T12:20:45;4.50;68.20
81800;DHT22;71195;52.528;5.704;2024-01-15T12:23:15;4.70;68.00
81800;DHT22;71195;52.528;5.704;2024-01-15T12:25:45;4.90;67.80
81800;DHT22;71195;52.528;5.704;2024-01-15T12:28:17;5.00;67.60
81800;DHT22;71195;52.528;5.704;2024-01-15T12:30:47;5.20;67.50
81800;DHT22;71195;52.528;5.704;2024-01-15T12:33:18;5.50;67.20
81800;DHT22;71195;52.528;5.704;2024-01-15T12:35:59;5.80;66.90
81800;DHT22;71195;52.528;5.704;2024-01-15T12:38:28;6.10;66.60
81800;DHT22;71195;52.528;5.704;2024-01-15T12:40:59;6.20;66.40
81800;DHT22;71195;52.528;5.704;2024-01-15T12:43:31;6.20;66.40
81800;DHT22;71195;52.528;5.704;2024-01-15T12:46:00;6.10;66.50
81800;DHT22;71195;52.528;5.704;2024-01-15T12:48:30;6.00;66.70
81800;DHT22;71195;52.528;5.704;2024-01-15T12:50:59;5.90;67.00
81800;DHT22;71195;52.528;5.704;2024-01-15T12:53:28;5.80;67.20
81800;DHT22;71195;52.528;5.704;2024-01-15T12:55:57;5.90;67.20
81800;DHT22;71195;52.528;5.704;2024-01-15T12:58:34;5.90;67.10
81800;DHT22;71195;52.528;5.704;2024-01-15T13:01:03;6.00;67.00
81800;DHT22;71195;52.528;5.704;2024-01-15T13:03:32;6.20;66.80
81800;DHT22;71195;52.528;5.704;2024-01-15T13:06:01;6.30;66.80
81800;DHT22;71195;52.528;5.704;2024-01-15T13:08:30;6.30;66.60
81800;DHT22;71195;52.528;5.704;2024-01-15T13:11:00;6.30;66.60
81800;DHT22;71195;52.528;5.704;2024-01-15T13:13:32;6.20;66.60
81800;DHT22;71195;52.528;5.704;2024-01-15T13:16:01;6.10;66.80
81800;DHT22;71195;52.528;5.704;2024-01-15T13:18:30;6.00;66.90
81800;DHT22;71195;52.528;5.704;2024-01-15T13:20:59;5.90;67.00
81800;DHT22;71195;52.528;5.704;2024-01-15T13:23:29;5.80;67.00
81800;DHT22;71195;52.528;5.704;2024-01-15T13:25:58;5.80;67.00
81800;DHT22;71195;52.528;5.704;2024-01-15T13:28:27;5.60;67.00
81800;DHT22;71195;52.528;5.704;2024-01-15T13:30:59;5.50;67.20
81800;DHT22;71195;52.528;5.704;2024-01-15T13:33:28;5.50;67.30
81800;DHT22;71195;52.528;5.704;2024-01-15T13:35:58;5.30;67.30
81800;DHT22;71195;52.528;5.704;2024-01-15T13:38:27;5.30;67.30
81800;DHT22;71195;52.528;5.704;2024-01-15T13:41:02;5.20;67.30
81800;DHT22;71195;52.528;5.704;2024-01-15T13:43:31;5.10;67.30
81800;DHT22;71195;52.528;5.704;2024-01-15T13:46:03;5.00;67.40
81800;DHT22;71195;52.528;5.704;2024-01-15T13:48:33;5.00;67.50
81800;DHT22;71195;52.528;5.704;2024-01-15T13:51:03;5.00;67.40
81800;DHT22;71195;52.528;5.704;2024-01-15T13:53:32;4.90;67.40
81800;DHT22;71195;52.528;5.704;2024-01-15T13:56:01;4.90;67.40
81800;DHT22;71195;52.528;5.704;2024-01-15T13:58:31;4.90;67.30
81800;DHT22;71195;52.528;5.704;2024-01-15T14:01:03;5.00;67.20
81800;DHT22;71195;52.528;5.704;2024-01-15T14:03:32;5.00;67.10
81800;DHT22;71195;52.528;5.704;2024-01-15T14:06:02;5.00;67.00
81800;DHT22;71195;52.528;5.704;2024-01-15T14:08:35;5.00;66.90
81800;DHT22;71195;52.528;5.704;2024-01-15T14:11:04;5.00;66.90
81800;DHT22;71195;52.528;5.704;2024-01-15T14:13:35;5.00;66.90
81800;DHT22;71195;52.528;5.704;2024-01-15T14:16:07;5.00;66.80
81800;DHT22;71195;52.528;5.704;2024-01-15T14:18:37;5.00;66.70
81800;DHT22;71195;52.528;5.704;2024-01-15T14:21:06;5.10;66.60
81800;DHT22;71195;52.528;5.704;2024-01-15T14:23:36;5.10;66.60
81800;DHT22;71195;52.528;5.704;2024-01-15T14:26:05;5.10;66.50
81800;DHT22;71195;52.528;5.704;2024-01-15T14:28:34;5.10;66.50
81800;DHT22;71195;52.528;5.704;2024-01-15T14:31:07;5.10;66.50
81800;DHT22;71195;52.528;5.704;2024-01-15T14:33:36;5.10;66.50
81800;DHT22;71195;52.528;5.704;2024-01-15T14:36:06;5.00;66.50
81800;DHT22;71195;52.528;5.704;2024-01-15T14:38:35;5.00;66.50
81800;DHT22;71195;52.528;5.704;2024-01-15T14:41:04;5.00;66.50
81800;DHT22;71195;52.528;5.704;2024-01-15T14:43:33;5.00;66.40
81800;DHT22;71195;52.528;5.704;2024-01-15T14:46:02;4.90;66.50
81800;DHT22;71195;52.528;5.704;2024-01-15T14:48:34;4.70;66.50
81800;DHT22;71195;52.528;5.704;2024-01-15T14:51:03;4.60;66.70
81800;DHT22;71195;52.528;5.704;2024-01-15T14:53:33;4.50;66.80
81800;DHT22;71195;52.528;5.704;2024-01-15T14:56:02;4.40;67.10
81800;DHT22;71195;52.528;5.704;2024-01-15T14:58:31;4.30;67.10
81800;DHT22;71195;52.528;5.704;2024-01-15T15:01:00;4.20;67.20
81800;DHT22;71195;52.528;5.704;2024-01-15T15:03:30;4.10;67.20
81800;DHT22;71195;52.528;5.704;2024-01-15T15:06:01;4.00;67.20
81800;DHT22;71195;52.528;5.704;2024-01-15T15:08:31;4.00;67.40
81800;DHT22;71195;52.528;5.704;2024-01-15T15:11:00;3.90;67.30
81800;DHT22;71195;52.528;5.704;2024-01-15T15:13:32;3.90;67.40
81800;DHT22;71195;52.528;5.704;2024-01-15T15:16:01;3.90;67.20
81800;DHT22;71195;52.528;5.704;2024-01-15T15:18:32;3.90;67.20
81800;DHT22;71195;52.528;5.704;2024-01-15T15:21:04;3.90;67.20
81800;DHT22;71195;52.528;5.704;2024-01-15T15:23:33;3.90;67.10
81800;DHT22;71195;52.528;5.704;2024-01-15T15:26:04;3.90;67.00
81800;DHT22;71195;52.528;5.704;2024-01-15T15:28:33;3.90;66.90
81800;DHT22;71195;52.528;5.704;2024-01-15T15:31:03;3.90;66.90
81800;DHT22;71195;52.528;5.704;2024-01-15T15:33:34;3.90;67.00
81800;DHT22;71195;52.528;5.704;2024-01-15T15:36:06;3.90;67.00
81800;DHT22;71195;52.528;5.704;2024-01-15T15:38:36;3.90;67.00
81800;DHT22;71195;52.528;5.704;2024-01-15T15:41:05;3.80;67.00
81800;DHT22;71195;52.528;5.704;2024-01-15T15:43:34;3.80;67.10
81800;DHT22;71195;52.528;5.704;2024-01-15T15:46:05;3.80;67.00
81800;DHT22;71195;52.528;5.704;2024-01-15T15:48:35;3.90;66.90
81800;DHT22;71195;52.528;5.704;2024-01-15T15:51:13;3.90;66.90
81800;DHT22;71195;52.528;5.704;2024-01-15T15:53:43;3.90;66.90
81800;DHT22;71195;52.528;5.704;2024-01-15T15:56:12;3.90;66.80
81800;DHT22;71195;52.528;5.704;2024-01-15T15:58:41;3.90;66.90
81800;DHT22;71195;52.528;5.704;2024-01-15T16:01:10;3.90;66.80
81800;DHT22;71195;52.528;5.704;2024-01-15T16:03:39;3.90;66.90